Time;durP1;ratioP1;P1;durP2;ratioP2;P2;SDS_P1;SDS_P2;PMS_P1;PMS_P2;Temp;Humidity;BMP_temperature;BMP_pressure;BME280_temperature;BME280_humidity;BME280_pressure;Samples;Min_cycle;Max_cycle;Signal;HPM_P1;HPM_P2
2021/07/18 00:00:13;;;;;;;;;;;20.60;99.90;;;;;;2091127;28;1747;-52
2021/07/18 00:01:33;;;;;;;;;;;20.60;99.90;;;;;;2099273;28;1393;-51
2021/07/18 00:02:52;;;;;;;;;;;20.60;99.90;;;;;;2090711;28;631;-52
2021/07/18 00:04:11;;;;;;;;;;;20.60;99.90;;;;;;2091610;28;595;-51
2021/07/18 00:05:30;;;;;;;;;;;20.60;99.90;;;;;;2098881;28;1417;-55
2021/07/18 00:06:49;;;;;;;;;;;20.60;99.90;;;;;;2098761;28;667;-51
2021/07/18 00:08:08;;;;;;;;;;;20.60;99.90;;;;;;2099711;28;1056;-50
2021/07/18 00:09:27;;;;;;;;;;;20.60;99.90;;;;;;2100141;28;1156;-51
2021/07/18 00:10:47;;;;;;;;;;;20.60;99.90;;;;;;2107624;28;684;-51
2021/07/18 00:12:06;;;;;;;;;;;20.60;99.90;;;;;;2106882;28;1764;-51
2021/07/18 00:13:25;;;;;;;;;;;20.60;99.90;;;;;;2107329;28;691;-52
2021/07/18 00:14:45;;;;;;;;;;;20.60;99.90;;;;;;2107079;28;612;-52
2021/07/18 00:16:04;;;;;;;;;;;20.60;99.90;;;;;;2102586;28;1751;-51
2021/07/18 00:17:23;;;;;;;;;;;20.60;99.90;;;;;;2095437;28;596;-52
2021/07/18 00:18:43;;;;;;;;;;;20.60;99.90;;;;;;2095620;28;855;-52
2021/07/18 00:20:03;;;;;;;;;;;20.60;99.90;;;;;;2098787;28;2000;-53
2021/07/18 00:21:23;;;;;;;;;;;20.60;99.90;;;;;;2098753;28;669;-51
2021/07/18 00:22:42;;;;;;;;;;;20.60;99.90;;;;;;2098982;28;769;-52
2021/07/18 00:24:01;;;;;;;;;;;20.60;99.90;;;;;;2098786;28;699;-52
2021/07/18 00:25:20;;;;;;;;;;;20.60;99.90;;;;;;2099345;28;713;-53
2021/07/18 00:26:39;;;;;;;;;;;20.60;99.90;;;;;;2090276;28;744;-53
2021/07/18 00:27:59;;;;;;;;;;;20.60;99.90;;;;;;2095308;28;1728;-53
2021/07/18 00:29:18;;;;;;;;;;;20.50;99.90;;;;;;2099388;28;736;-52
2021/07/18 00:30:38;;;;;;;;;;;20.60;99.90;;;;;;2098636;28;723;-50
2021/07/18 00:31:57;;;;;;;;;;;20.60;99.90;;;;;;2095473;28;1478;-51
2021/07/18 00:33:16;;;;;;;;;;;20.60;99.90;;;;;;2099015;28;621;-53
2021/07/18 00:34:35;;;;;;;;;;;20.60;99.90;;;;;;2098293;28;1443;-53
2021/07/18 00:35:55;;;;;;;;;;;20.60;99.90;;;;;;2098833;28;1922;-52
2021/07/18 00:37:14;;;;;;;;;;;20.60;99.90;;;;;;2098367;28;1059;-51
2021/07/18 00:38:33;;;;;;;;;;;20.60;99.90;;;;;;2102812;28;1182;-52
2021/07/18 00:39:52;;;;;;;;;;;20.60;99.90;;;;;;2092402;28;881;-50
2021/07/18 00:41:11;;;;;;;;;;;20.60;99.90;;;;;;2108530;28;684;-51
2021/07/18 00:42:31;;;;;;;;;;;20.60;99.90;;;;;;2090234;28;704;-52
2021/07/18 00:43:50;;;;;;;;;;;20.60;99.90;;;;;;2081789;28;677;-54
2021/07/18 00:45:10;;;;;;;;;;;20.60;99.90;;;;;;2091546;28;1469;-51
2021/07/18 00:46:29;;;;;;;;;;;20.60;99.90;;;;;;2098424;28;648;-53
2021/07/18 00:47:48;;;;;;;;;;;20.60;99.90;;;;;;2098562;28;701;-50
2021/07/18 00:49:08;;;;;;;;;;;20.60;99.90;;;;;;2098588;28;1702;-50
2021/07/18 00:50:27;;;;;;;;;;;20.60;99.90;;;;;;2098930;28;708;-51
2021/07/18 00:51:46;;;;;;;;;;;20.60;99.90;;;;;;2098287;28;1479;-52
2021/07/18 00:53:05;;;;;;;;;;;20.50;99.90;;;;;;2098614;28;696;-50
2021/07/18 00:54:24;;;;;;;;;;;20.60;99.90;;;;;;2098330;28;717;-55
2021/07/18 00:55:44;;;;;;;;;;;20.60;99.90;;;;;;2098176;28;1965;-50
2021/07/18 00:57:04;;;;;;;;;;;20.60;99.90;;;;;;2094995;28;795;-51
2021/07/18 00:58:24;;;;;;;;;;;20.50;99.90;;;;;;2094780;28;1982;-51
2021/07/18 00:59:43;;;;;;;;;;;20.50;99.90;;;;;;2098711;28;700;-52
2021/07/18 01:01:02;;;;;;;;;;;20.50;99.90;;;;;;2089975;28;727;-54
2021/07/18 01:02:21;;;;;;;;;;;20.50;99.90;;;;;;2091844;28;1366;-54
2021/07/18 01:03:41;;;;;;;;;;;20.50;99.90;;;;;;2100243;28;1675;-54
2021/07/18 01:05:00;;;;;;;;;;;20.50;99.90;;;;;;2107151;28;645;-52
2021/07/18 01:06:19;;;;;;;;;;;20.50;99.90;;;;;;2106481;28;621;-52
2021/07/18 01:07:38;;;;;;;;;;;20.50;99.90;;;;;;2099574;28;1319;-53
2021/07/18 01:08:58;;;;;;;;;;;20.50;99.90;;;;;;2104000;28;956;-51
2021/07/18 01:10:17;;;;;;;;;;;20.50;99.90;;;;;;2100569;28;1051;-54
2021/07/18 01:11:36;;;;;;;;;;;20.50;99.90;;;;;;2093105;28;1876;-50
2021/07/18 01:12:56;;;;;;;;;;;20.50;99.90;;;;;;2098060;28;1004;-51
2021/07/18 01:14:15;;;;;;;;;;;20.50;99.90;;;;;;2094075;28;1059;-53
2021/07/18 01:15:34;;;;;;;;;;;20.50;99.90;;;;;;2098461;28;1901;-52
2021/07/18 01:16:53;;;;;;;;;;;20.50;99.90;;;;;;2100953;28;1301;-52
2021/07/18 01:18:12;;;;;;;;;;;20.50;99.90;;;;;;2095468;28;1713;-53
2021/07/18 01:19:32;;;;;;;;;;;20.50;99.90;;;;;;2091824;28;630;-51
2021/07/18 01:20:51;;;;;;;;;;;20.50;99.90;;;;;;2095031;28;623;-52
2021/07/18 01:22:10;;;;;;;;;;;20.50;99.90;;;;;;2098151;28;1689;-53
2021/07/18 01:23:29;;;;;;;;;;;20.50;99.90;;;;;;2098950;28;745;-52
2021/07/18 01:24:49;;;;;;;;;;;20.50;99.90;;;;;;2097391;28;781;-53
2021/07/18 01:26:08;;;;;;;;;;;20.50;99.90;;;;;;2089815;28;693;-51
2021/07/18 01:27:27;;;;;;;;;;;20.50;99.90;;;;;;2091504;28;578;-51
2021/07/18 01:28:47;;;;;;;;;;;20.50;99.90;;;;;;2087677;28;1670;-53
2021/07/18 01:30:07;;;;;;;;;;;20.50;99.90;;;;;;2086580;28;766;-53
2021/07/18 01:31:26;;;;;;;;;;;20.50;99.90;;;;;;2087731;28;1693;-51
2021/07/18 01:32:45;;;;;;;;;;;20.50;99.90;;;;;;2094652;28;718;-52
2021/07/18 01:34:04;;;;;;;;;;;20.50;99.90;;;;;;2097862;28;677;-53
2021/07/18 01:35:23;;;;;;;;;;;20.50;99.90;;;;;;2097990;28;1910;-52
2021/07/18 01:36:43;;;;;;;;;;;20.50;99.90;;;;;;2094578;28;1429;-54
2021/07/18 01:38:04;;;;;;;;;;;20.50;99.90;;;;;;2092377;28;1465;-53
2021/07/18 01:39:23;;;;;;;;;;;20.50;99.90;;;;;;2101688;28;1106;-51
2021/07/18 01:40:43;;;;;;;;;;;20.50;99.90;;;;;;2098606;28;702;-50
2021/07/18 01:42:02;;;;;;;;;;;20.50;99.90;;;;;;2098703;28;1405;-53
2021/07/18 01:43:21;;;;;;;;;;;20.40;99.90;;;;;;2098349;28;709;-54
2021/07/18 01:44:44;;;;;;;;;;;20.40;99.90;;;;;;2097895;28;711;-53
2021/07/18 01:46:03;;;;;;;;;;;20.40;99.90;;;;;;2098061;28;625;-51
2021/07/18 01:47:22;;;;;;;;;;;20.40;99.90;;;;;;2098120;28;705;-54
2021/07/18 01:48:42;;;;;;;;;;;20.40;99.90;;;;;;2098368;28;1690;-53
2021/07/18 01:50:01;;;;;;;;;;;20.50;99.90;;;;;;2097872;28;681;-51
2021/07/18 01:51:23;;;;;;;;;;;20.40;99.90;;;;;;2097121;28;771;-53
2021/07/18 01:52:43;;;;;;;;;;;20.40;99.90;;;;;;2098194;28;716;-52
2021/07/18 01:54:02;;;;;;;;;;;20.40;99.90;;;;;;2097561;28;674;-53
2021/07/18 01:55:22;;;;;;;;;;;20.40;99.90;;;;;;2097607;28;1949;-53
2021/07/18 01:56:42;;;;;;;;;;;20.40;99.90;;;;;;2094566;28;1632;-52
2021/07/18 01:58:01;;;;;;;;;;;20.50;99.90;;;;;;2097610;28;1718;-54
2021/07/18 01:59:20;;;;;;;;;;;20.40;99.90;;;;;;2097762;28;1742;-52
2021/07/18 02:00:39;;;;;;;;;;;20.40;99.90;;;;;;2098174;28;637;-52
2021/07/18 02:01:58;;;;;;;;;;;20.40;99.90;;;;;;2097701;28;1751;-52
2021/07/18 02:03:18;;;;;;;;;;;20.40;99.90;;;;;;2097802;28;734;-53
2021/07/18 02:04:38;;;;;;;;;;;20.40;99.90;;;;;;2089179;28;631;-51
2021/07/18 02:05:57;;;;;;;;;;;20.40;99.90;;;;;;2094629;28;798;-51
2021/07/18 02:07:16;;;;;;;;;;;20.40;99.90;;;;;;2089166;28;1005;-52
2021/07/18 02:08:36;;;;;;;;;;;20.40;99.90;;;;;;2089634;28;1203;-52
2021/07/18 02:09:55;;;;;;;;;;;20.40;99.90;;;;;;2091441;28;948;-53
2021/07/18 02:11:15;;;;;;;;;;;20.50;99.90;;;;;;2103291;28;770;-50
2021/07/18 02:12:35;;;;;;;;;;;20.40;99.90;;;;;;2106085;28;733;-53
2021/07/18 02:13:55;;;;;;;;;;;20.40;99.90;;;;;;2098954;28;1657;-54
2021/07/18 02:15:18;;;;;;;;;;;20.40;99.90;;;;;;2098075;28;1898;-51
2021/07/18 02:16:37;;;;;;;;;;;20.40;99.90;;;;;;2097137;28;772;-52
2021/07/18 02:17:56;;;;;;;;;;;20.40;99.90;;;;;;2093688;28;1765;-53
2021/07/18 02:19:16;;;;;;;;;;;20.40;99.90;;;;;;2098165;28;720;-55
2021/07/18 02:20:35;;;;;;;;;;;20.40;99.90;;;;;;2097864;28;725;-51
2021/07/18 02:21:54;;;;;;;;;;;20.40;99.90;;;;;;2098076;28;1483;-51
2021/07/18 02:23:13;;;;;;;;;;;20.40;99.90;;;;;;2089574;28;731;-55
2021/07/18 02:24:32;;;;;;;;;;;20.40;99.90;;;;;;2093726;28;737;-56
2021/07/18 02:25:52;;;;;;;;;;;20.40;99.90;;;;;;2098222;28;684;-57
2021/07/18 02:27:11;;;;;;;;;;;20.40;99.90;;;;;;2097953;28;713;-55
2021/07/18 02:28:30;;;;;;;;;;;20.40;99.90;;;;;;2097580;28;1749;-52
2021/07/18 02:29:49;;;;;;;;;;;20.40;99.90;;;;;;2098160;28;575;-52
2021/07/18 02:31:09;;;;;;;;;;;20.40;99.90;;;;;;2097699;28;736;-55
2021/07/18 02:32:28;;;;;;;;;;;20.40;99.90;;;;;;2098025;28;1552;-51
2021/07/18 02:33:47;;;;;;;;;;;20.40;99.90;;;;;;2098181;28;733;-55
2021/07/18 02:35:07;;;;;;;;;;;20.40;99.90;;;;;;2098059;28;1902;-54
2021/07/18 02:36:26;;;;;;;;;;;20.40;99.90;;;;;;2097807;28;589;-54
2021/07/18 02:37:46;;;;;;;;;;;20.40;99.90;;;;;;2091241;28;1190;-54
2021/07/18 02:39:05;;;;;;;;;;;20.30;99.90;;;;;;2101761;28;984;-55
2021/07/18 02:40:24;;;;;;;;;;;20.40;99.90;;;;;;2098604;28;1104;-54
2021/07/18 02:41:43;;;;;;;;;;;20.30;99.90;;;;;;2089129;28;1365;-53
2021/07/18 02:43:03;;;;;;;;;;;20.30;99.90;;;;;;2094600;28;684;-55
2021/07/18 02:44:22;;;;;;;;;;;20.40;99.90;;;;;;2096790;28;680;-55
2021/07/18 02:45:41;;;;;;;;;;;20.40;99.90;;;;;;2097689;28;677;-54
2021/07/18 02:47:00;;;;;;;;;;;20.40;99.90;;;;;;2097810;28;1737;-54
2021/07/18 02:48:20;;;;;;;;;;;20.30;99.90;;;;;;2097267;28;1718;-51
2021/07/18 02:49:39;;;;;;;;;;;20.40;99.90;;;;;;2093989;28;759;-55
2021/07/18 02:50:58;;;;;;;;;;;20.30;99.90;;;;;;2092320;28;719;-55
2021/07/18 02:52:18;;;;;;;;;;;20.40;99.90;;;;;;2097561;28;1478;-55
2021/07/18 02:53:37;;;;;;;;;;;20.40;99.90;;;;;;2097630;28;1602;-53
2021/07/18 02:54:56;;;;;;;;;;;20.30;99.90;;;;;;2096683;28;822;-55
2021/07/18 02:56:16;;;;;;;;;;;20.30;99.90;;;;;;2097443;28;748;-55
2021/07/18 02:57:35;;;;;;;;;;;20.40;99.90;;;;;;2093897;28;755;-56
2021/07/18 02:58:54;;;;;;;;;;;20.40;99.90;;;;;;2099809;28;1005;-55
2021/07/18 03:00:14;;;;;;;;;;;20.30;99.90;;;;;;2097877;28;741;-54
2021/07/18 03:01:34;;;;;;;;;;;20.30;99.90;;;;;;2097162;28;1307;-57
2021/07/18 03:02:53;;;;;;;;;;;20.40;99.90;;;;;;2097190;28;789;-55
2021/07/18 03:04:12;;;;;;;;;;;20.30;99.90;;;;;;2096984;28;728;-54
2021/07/18 03:05:31;;;;;;;;;;;20.30;99.90;;;;;;2097689;28;723;-54
2021/07/18 03:06:50;;;;;;;;;;;20.30;99.90;;;;;;2097339;28;730;-57
2021/07/18 03:08:09;;;;;;;;;;;20.30;99.90;;;;;;2098242;28;1679;-58
2021/07/18 03:09:28;;;;;;;;;;;20.40;99.90;;;;;;2104986;28;964;-54
2021/07/18 03:10:48;;;;;;;;;;;20.30;99.90;;;;;;2097256;28;779;-56
2021/07/18 03:12:07;;;;;;;;;;;20.30;99.90;;;;;;2097058;28;1273;-55
2021/07/18 03:13:26;;;;;;;;;;;20.30;99.90;;;;;;2098315;28;1472;-55
2021/07/18 03:14:46;;;;;;;;;;;20.30;99.90;;;;;;2096671;28;711;-58
2021/07/18 03:16:05;;;;;;;;;;;20.30;99.90;;;;;;2101745;28;1914;-53
2021/07/18 03:17:24;;;;;;;;;;;20.30;99.90;;;;;;2105886;28;816;-55
2021/07/18 03:18:43;;;;;;;;;;;20.30;99.90;;;;;;2098240;28;1481;-55
2021/07/18 03:20:06;;;;;;;;;;;20.30;99.90;;;;;;2097696;28;769;-55
2021/07/18 03:21:25;;;;;;;;;;;20.30;99.90;;;;;;2097682;28;967;-54
2021/07/18 03:22:44;;;;;;;;;;;20.30;99.90;;;;;;2097623;28;704;-55
2021/07/18 03:24:03;;;;;;;;;;;20.30;99.90;;;;;;2096558;28;773;-55
2021/07/18 03:25:22;;;;;;;;;;;20.30;99.90;;;;;;2097165;28;716;-54
2021/07/18 03:26:42;;;;;;;;;;;20.30;99.90;;;;;;2097273;28;786;-55
2021/07/18 03:28:01;;;;;;;;;;;20.30;99.90;;;;;;2087621;28;1992;-56
2021/07/18 03:29:20;;;;;;;;;;;20.30;99.90;;;;;;2086015;28;960;-56
2021/07/18 03:30:39;;;;;;;;;;;20.30;99.90;;;;;;2085254;28;1967;-57
2021/07/18 03:31:59;;;;;;;;;;;20.30;99.90;;;;;;2085401;28;1413;-55
2021/07/18 03:33:19;;;;;;;;;;;20.30;99.90;;;;;;2089220;28;715;-57
2021/07/18 03:34:38;;;;;;;;;;;20.30;99.90;;;;;;2088673;28;714;-53
2021/07/18 03:35:57;;;;;;;;;;;20.30;99.90;;;;;;2088614;28;1910;-54
2021/07/18 03:37:16;;;;;;;;;;;20.30;99.90;;;;;;2089636;28;737;-56
2021/07/18 03:38:35;;;;;;;;;;;20.30;99.90;;;;;;2099421;28;1204;-58
2021/07/18 03:39:55;;;;;;;;;;;20.30;99.90;;;;;;2093839;28;1114;-53
2021/07/18 03:41:14;;;;;;;;;;;20.30;99.90;;;;;;2102003;28;737;-56
2021/07/18 03:42:33;;;;;;;;;;;20.30;99.90;;;;;;2105755;28;782;-55
2021/07/18 03:43:52;;;;;;;;;;;20.30;99.90;;;;;;2105828;28;713;-56
2021/07/18 03:45:12;;;;;;;;;;;20.30;99.90;;;;;;2105788;28;1444;-53
2021/07/18 03:46:31;;;;;;;;;;;20.30;99.90;;;;;;2088615;28;744;-57
2021/07/18 03:47:50;;;;;;;;;;;20.30;99.90;;;;;;2088966;28;730;-54
2021/07/18 03:49:10;;;;;;;;;;;20.30;99.90;;;;;;2088543;28;825;-55
2021/07/18 03:50:29;;;;;;;;;;;20.30;99.90;;;;;;2089119;28;750;-54
2021/07/18 03:51:48;;;;;;;;;;;20.30;99.90;;;;;;2090398;28;1322;-53
2021/07/18 03:53:08;;;;;;;;;;;20.30;99.90;;;;;;2090743;28;821;-55
2021/07/18 03:54:27;;;;;;;;;;;20.30;99.90;;;;;;2089569;28;728;-53
2021/07/18 03:55:46;;;;;;;;;;;20.30;99.90;;;;;;2090581;28;1906;-55
2021/07/18 03:57:05;;;;;;;;;;;20.30;99.90;;;;;;2090653;28;690;-54
2021/07/18 03:58:24;;;;;;;;;;;20.30;99.90;;;;;;2094287;28;1659;-51
2021/07/18 03:59:44;;;;;;;;;;;20.30;99.90;;;;;;2099019;28;729;-58
2021/07/18 04:01:09;;;;;;;;;;;20.30;99.90;;;;;;2098746;28;1721;-55
2021/07/18 04:02:28;;;;;;;;;;;20.30;99.90;;;;;;2099010;28;1331;-54
2021/07/18 04:03:48;;;;;;;;;;;20.30;99.90;;;;;;2098776;28;716;-54
2021/07/18 04:05:07;;;;;;;;;;;20.30;99.90;;;;;;2098964;28;733;-55
2021/07/18 04:06:26;;;;;;;;;;;20.30;99.90;;;;;;2098989;28;688;-57
2021/07/18 04:07:45;;;;;;;;;;;20.30;99.90;;;;;;2099076;28;1481;-54
2021/07/18 04:09:05;;;;;;;;;;;20.30;99.90;;;;;;2091159;28;987;-53
2021/07/18 04:10:24;;;;;;;;;;;20.30;99.90;;;;;;2101678;28;1202;-51
2021/07/18 04:11:43;;;;;;;;;;;20.30;99.90;;;;;;2107021;28;1294;-51
2021/07/18 04:13:02;;;;;;;;;;;20.30;99.90;;;;;;2106772;28;722;-53
2021/07/18 04:14:21;;;;;;;;;;;20.30;99.90;;;;;;2106458;28;808;-56
2021/07/18 04:15:41;;;;;;;;;;;20.30;99.90;;;;;;2101826;28;2001;-54
2021/07/18 04:17:00;;;;;;;;;;;20.20;99.90;;;;;;2098899;28;900;-54
2021/07/18 04:18:19;;;;;;;;;;;20.30;99.90;;;;;;2089915;28;773;-51
2021/07/18 04:19:38;;;;;;;;;;;20.20;99.90;;;;;;2090648;28;742;-57
2021/07/18 04:20:58;;;;;;;;;;;20.30;99.90;;;;;;2090740;28;705;-54
2021/07/18 04:22:17;;;;;;;;;;;20.30;99.90;;;;;;2089973;28;1361;-57
2021/07/18 04:23:36;;;;;;;;;;;20.30;99.90;;;;;;2086749;28;711;-55
2021/07/18 04:24:55;;;;;;;;;;;20.30;99.90;;;;;;2086305;28;706;-56
2021/07/18 04:26:15;;;;;;;;;;;20.30;99.90;;;;;;2090086;28;747;-53
2021/07/18 04:27:34;;;;;;;;;;;20.30;99.90;;;;;;2094339;28;1976;-56
2021/07/18 04:28:53;;;;;;;;;;;20.30;99.90;;;;;;2098540;28;801;-53
2021/07/18 04:30:12;;;;;;;;;;;20.30;99.90;;;;;;2097900;28;1671;-55
2021/07/18 04:31:32;;;;;;;;;;;20.30;99.90;;;;;;2098644;28;1351;-53
2021/07/18 04:32:51;;;;;;;;;;;20.30;99.90;;;;;;2099238;28;609;-58
2021/07/18 04:34:10;;;;;;;;;;;20.30;99.90;;;;;;2097728;28;758;-53
2021/07/18 04:35:29;;;;;;;;;;;20.30;99.90;;;;;;2098246;28;1910;-54
2021/07/18 04:36:48;;;;;;;;;;;20.30;99.90;;;;;;2098672;28;668;-53
2021/07/18 04:38:08;;;;;;;;;;;20.30;99.90;;;;;;2099110;28;1507;-54
2021/07/18 04:39:27;;;;;;;;;;;20.30;99.90;;;;;;2100152;28;959;-53
2021/07/18 04:40:46;;;;;;;;;;;20.30;99.90;;;;;;2107538;28;656;-56
2021/07/18 04:42:05;;;;;;;;;;;20.30;99.90;;;;;;2107436;28;1403;-54
2021/07/18 04:43:24;;;;;;;;;;;20.30;99.90;;;;;;2107344;28;686;-54
2021/07/18 04:44:43;;;;;;;;;;;20.30;99.90;;;;;;2106917;28;695;-53
2021/07/18 04:46:04;;;;;;;;;;;20.30;99.90;;;;;;2098893;28;1244;-52
2021/07/18 04:47:23;;;;;;;;;;;20.30;99.90;;;;;;2098252;28;1408;-56
2021/07/18 04:48:42;;;;;;;;;;;20.30;99.90;;;;;;2098809;28;664;-54
2021/07/18 04:50:02;;;;;;;;;;;20.30;99.90;;;;;;2090186;28;719;-56
2021/07/18 04:51:21;;;;;;;;;;;20.30;99.90;;;;;;2093948;28;725;-56
2021/07/18 04:52:40;;;;;;;;;;;20.30;99.90;;;;;;2098911;28;726;-53
2021/07/18 04:53:59;;;;;;;;;;;20.30;99.90;;;;;;2089579;28;687;-59
2021/07/18 04:55:19;;;;;;;;;;;20.30;99.90;;;;;;2095953;28;1879;-56
2021/07/18 04:56:38;;;;;;;;;;;20.20;99.90;;;;;;2098439;28;801;-51
2021/07/18 04:57:57;;;;;;;;;;;20.20;99.90;;;;;;2098384;28;1684;-55
2021/07/18 04:59:17;;;;;;;;;;;20.30;99.90;;;;;;2098235;28;738;-55
2021/07/18 05:00:37;;;;;;;;;;;20.30;99.90;;;;;;2098896;28;1417;-51
2021/07/18 05:01:56;;;;;;;;;;;20.30;99.90;;;;;;2098883;28;1353;-55
2021/07/18 05:03:15;;;;;;;;;;;20.20;99.90;;;;;;2096922;28;1955;-55
2021/07/18 05:04:34;;;;;;;;;;;20.20;99.90;;;;;;2089755;28;715;-54
2021/07/18 05:05:53;;;;;;;;;;;20.30;99.90;;;;;;2090586;28;719;-55
2021/07/18 05:07:13;;;;;;;;;;;20.20;99.90;;;;;;2090579;28;705;-55
2021/07/18 05:08:33;;;;;;;;;;;20.20;99.90;;;;;;2106062;28;1127;-52
2021/07/18 05:09:52;;;;;;;;;;;20.20;99.90;;;;;;2091187;28;924;-56
2021/07/18 05:11:11;;;;;;;;;;;20.30;99.90;;;;;;2111856;28;686;-56
2021/07/18 05:12:31;;;;;;;;;;;20.30;99.90;;;;;;2106658;28;1353;-56
2021/07/18 05:13:52;;;;;;;;;;;20.30;99.90;;;;;;2102008;28;1656;-53
2021/07/18 05:15:11;;;;;;;;;;;20.30;99.90;;;;;;2098182;28;1396;-52
2021/07/18 05:16:30;;;;;;;;;;;20.30;99.90;;;;;;2086709;28;873;-56
2021/07/18 05:17:49;;;;;;;;;;;20.30;99.90;;;;;;2096692;28;1333;-53
2021/07/18 05:19:09;;;;;;;;;;;20.30;99.90;;;;;;2095168;28;666;-56
2021/07/18 05:20:28;;;;;;;;;;;20.30;99.90;;;;;;2091752;28;817;-54
2021/07/18 05:21:47;;;;;;;;;;;20.30;99.90;;;;;;2103617;28;1360;-54
2021/07/18 05:23:07;;;;;;;;;;;20.30;99.90;;;;;;2106673;28;737;-54
2021/07/18 05:24:26;;;;;;;;;;;20.30;99.90;;;;;;2086143;28;785;-57
2021/07/18 05:25:45;;;;;;;;;;;20.30;99.90;;;;;;2090358;28;700;-53
2021/07/18 05:27:04;;;;;;;;;;;20.30;99.90;;;;;;2090456;28;676;-52
2021/07/18 05:28:24;;;;;;;;;;;20.30;99.90;;;;;;2089855;28;742;-55
2021/07/18 05:29:43;;;;;;;;;;;20.30;99.90;;;;;;2086783;28;664;-52
2021/07/18 05:31:02;;;;;;;;;;;20.30;99.90;;;;;;2098399;28;725;-58
2021/07/18 05:32:21;;;;;;;;;;;20.30;99.90;;;;;;2097950;28;1640;-53
2021/07/18 05:33:40;;;;;;;;;;;20.30;99.90;;;;;;2094641;28;1533;-56
2021/07/18 05:34:59;;;;;;;;;;;20.30;99.90;;;;;;2085541;28;732;-54
2021/07/18 05:36:18;;;;;;;;;;;20.30;99.90;;;;;;2091340;28;633;-54
2021/07/18 05:37:37;;;;;;;;;;;20.30;99.90;;;;;;2094554;28;1756;-57
2021/07/18 05:38:57;;;;;;;;;;;20.30;99.90;;;;;;2103881;28;995;-53
2021/07/18 05:40:16;;;;;;;;;;;20.40;99.90;;;;;;2104203;28;1012;-57
2021/07/18 05:41:35;;;;;;;;;;;20.40;99.90;;;;;;2106535;28;1384;-54
2021/07/18 05:42:55;;;;;;;;;;;20.40;99.90;;;;;;2106865;28;621;-53
2021/07/18 05:44:14;;;;;;;;;;;20.40;99.90;;;;;;2106041;28;561;-54
2021/07/18 05:45:33;;;;;;;;;;;20.40;99.90;;;;;;2106944;28;687;-53
2021/07/18 05:46:52;;;;;;;;;;;20.40;99.90;;;;;;2097973;28;620;-57
2021/07/18 05:48:11;;;;;;;;;;;20.40;99.90;;;;;;2094995;28;725;-55
2021/07/18 05:49:31;;;;;;;;;;;20.40;99.90;;;;;;2098375;28;689;-56
2021/07/18 05:50:50;;;;;;;;;;;20.40;99.90;;;;;;2096762;28;733;-55
2021/07/18 05:52:10;;;;;;;;;;;20.40;99.90;;;;;;2097839;28;1365;-57
2021/07/18 05:53:29;;;;;;;;;;;20.40;99.90;;;;;;2094472;28;694;-53
2021/07/18 05:54:48;;;;;;;;;;;20.50;99.90;;;;;;2097161;28;706;-57
2021/07/18 05:56:07;;;;;;;;;;;20.50;99.90;;;;;;2086231;28;1910;-55
2021/07/18 05:57:27;;;;;;;;;;;20.50;99.90;;;;;;2094662;28;1832;-57
2021/07/18 05:58:46;;;;;;;;;;;20.50;99.90;;;;;;2089967;28;672;-54
2021/07/18 06:00:06;;;;;;;;;;;20.50;99.90;;;;;;2090261;28;657;-55
2021/07/18 06:01:29;;;;;;;;;;;20.50;99.90;;;;;;2097605;28;694;-54
2021/07/18 06:02:49;;;;;;;;;;;20.50;99.90;;;;;;2097764;28;1397;-55
2021/07/18 06:04:08;;;;;;;;;;;20.50;99.90;;;;;;2093918;28;806;-55
2021/07/18 06:05:27;;;;;;;;;;;20.50;99.90;;;;;;2097715;28;699;-53
2021/07/18 06:06:46;;;;;;;;;;;20.50;99.90;;;;;;2098231;28;697;-57
2021/07/18 06:08:06;;;;;;;;;;;20.50;99.90;;;;;;2101259;28;1765;-53
2021/07/18 06:09:25;;;;;;;;;;;20.60;99.90;;;;;;2099603;28;1034;-54
2021/07/18 06:10:44;;;;;;;;;;;20.50;99.90;;;;;;2106905;28;605;-52
2021/07/18 06:12:03;;;;;;;;;;;20.50;99.90;;;;;;2105893;28;1334;-55
2021/07/18 06:13:23;;;;;;;;;;;20.60;99.90;;;;;;2106614;28;617;-54
2021/07/18 06:14:43;;;;;;;;;;;20.60;99.90;;;;;;2094463;28;1806;-54
2021/07/18 06:16:02;;;;;;;;;;;20.60;99.90;;;;;;2089322;28;1973;-54
2021/07/18 06:17:21;;;;;;;;;;;20.60;99.90;;;;;;2093985;28;1678;-54
2021/07/18 06:18:40;;;;;;;;;;;20.60;99.90;;;;;;2094500;28;678;-57
2021/07/18 06:20:00;;;;;;;;;;;20.60;99.90;;;;;;2097975;28;743;-51
2021/07/18 06:21:19;;;;;;;;;;;20.60;99.90;;;;;;2097837;28;680;-57
2021/07/18 06:22:38;;;;;;;;;;;20.60;99.90;;;;;;2097819;28;737;-52
2021/07/18 06:23:57;;;;;;;;;;;20.60;99.90;;;;;;2097938;28;688;-56
2021/07/18 06:25:16;;;;;;;;;;;20.60;99.90;;;;;;2097734;28;594;-54
2021/07/18 06:26:35;;;;;;;;;;;20.60;99.90;;;;;;2097507;28;719;-54
2021/07/18 06:27:54;;;;;;;;;;;20.60;99.90;;;;;;2097659;28;1955;-51
2021/07/18 06:29:14;;;;;;;;;;;20.60;99.90;;;;;;2097360;28;751;-54
2021/07/18 06:30:33;;;;;;;;;;;20.60;99.90;;;;;;2097610;28;693;-52
2021/07/18 06:31:53;;;;;;;;;;;20.60;99.90;;;;;;2094415;28;1459;-55
2021/07/18 06:33:12;;;;;;;;;;;20.60;99.90;;;;;;2097188;28;779;-53
2021/07/18 06:34:31;;;;;;;;;;;20.60;99.90;;;;;;2097520;28;702;-56
2021/07/18 06:35:50;;;;;;;;;;;20.60;99.90;;;;;;2097729;28;1969;-51
2021/07/18 06:37:10;;;;;;;;;;;20.60;99.90;;;;;;2097239;28;709;-54
2021/07/18 06:38:29;;;;;;;;;;;20.60;99.90;;;;;;2104550;28;951;-57
2021/07/18 06:39:48;;;;;;;;;;;20.60;99.90;;;;;;2092792;28;1839;-56
2021/07/18 06:41:07;;;;;;;;;;;20.60;99.90;;;;;;2102534;28;745;-54
2021/07/18 06:42:27;;;;;;;;;;;20.60;99.90;;;;;;2093998;28;1362;-55
2021/07/18 06:43:46;;;;;;;;;;;20.70;99.90;;;;;;2102189;28;841;-52
2021/07/18 06:45:05;;;;;;;;;;;20.70;99.90;;;;;;2105663;28;710;-55
2021/07/18 06:46:25;;;;;;;;;;;20.70;99.90;;;;;;2105878;28;779;-56
2021/07/18 06:47:45;;;;;;;;;;;20.70;99.90;;;;;;2100919;28;1527;-56
2021/07/18 06:49:04;;;;;;;;;;;20.70;99.90;;;;;;2094025;28;778;-56
2021/07/18 06:50:23;;;;;;;;;;;20.70;99.90;;;;;;2093689;28;798;-56
2021/07/18 06:51:43;;;;;;;;;;;20.70;99.90;;;;;;2097177;28;1987;-56
2021/07/18 06:53:02;;;;;;;;;;;20.70;99.90;;;;;;2097062;28;837;-55
2021/07/18 06:54:21;;;;;;;;;;;20.70;99.90;;;;;;2093550;28;803;-56
2021/07/18 06:55:41;;;;;;;;;;;20.80;99.90;;;;;;2097437;28;1906;-56
2021/07/18 06:57:00;;;;;;;;;;;20.70;99.90;;;;;;2097730;28;744;-56
2021/07/18 06:58:19;;;;;;;;;;;20.70;99.90;;;;;;2097947;28;1810;-52
2021/07/18 06:59:38;;;;;;;;;;;20.70;99.90;;;;;;2097678;28;730;-51
2021/07/18 07:00:57;;;;;;;;;;;20.70;99.90;;;;;;2097958;28;800;-56
2021/07/18 07:02:17;;;;;;;;;;;20.80;99.90;;;;;;2097060;28;1348;-55
2021/07/18 07:03:36;;;;;;;;;;;20.70;99.90;;;;;;2099943;28;1857;-56
2021/07/18 07:04:55;;;;;;;;;;;20.80;99.90;;;;;;2097331;28;694;-53
2021/07/18 07:06:14;;;;;;;;;;;20.70;99.90;;;;;;2097765;28;941;-54
2021/07/18 07:07:34;;;;;;;;;;;20.80;99.90;;;;;;2096635;28;1399;-56
2021/07/18 07:08:53;;;;;;;;;;;20.70;99.90;;;;;;2093378;28;892;-56
2021/07/18 07:10:13;;;;;;;;;;;20.70;99.90;;;;;;2100383;28;1198;-55
2021/07/18 07:11:32;;;;;;;;;;;20.80;99.90;;;;;;2097343;28;747;-53
2021/07/18 07:12:51;;;;;;;;;;;20.80;99.90;;;;;;2090357;28;1506;-56
2021/07/18 07:14:10;;;;;;;;;;;20.80;99.90;;;;;;2093141;28;829;-54
2021/07/18 07:15:29;;;;;;;;;;;20.80;99.90;;;;;;2089358;28;1902;-51
2021/07/18 07:16:49;;;;;;;;;;;20.80;99.90;;;;;;2088595;28;842;-54
2021/07/18 07:18:08;;;;;;;;;;;20.80;99.90;;;;;;2095579;28;1853;-55
2021/07/18 07:19:27;;;;;;;;;;;20.80;99.90;;;;;;2097811;28;694;-53
2021/07/18 07:20:47;;;;;;;;;;;20.80;99.90;;;;;;2080580;28;713;-55
2021/07/18 07:22:06;;;;;;;;;;;20.80;99.90;;;;;;2090854;28;1358;-56
2021/07/18 07:23:25;;;;;;;;;;;20.80;99.90;;;;;;2097210;28;726;-55
2021/07/18 07:24:44;;;;;;;;;;;20.80;99.90;;;;;;2096814;28;807;-52
2021/07/18 07:26:04;;;;;;;;;;;20.80;99.90;;;;;;2097632;28;1713;-55
2021/07/18 07:27:24;;;;;;;;;;;20.80;99.90;;;;;;2090788;28;1726;-55
2021/07/18 07:28:43;;;;;;;;;;;20.80;99.90;;;;;;2090360;28;734;-54
2021/07/18 07:30:06;;;;;;;;;;;20.80;99.90;;;;;;2090981;28;736;-57
2021/07/18 07:31:25;;;;;;;;;;;20.80;99.90;;;;;;2091217;28;728;-55
2021/07/18 07:32:45;;;;;;;;;;;20.80;99.90;;;;;;2082207;28;794;-54
2021/07/18 07:34:04;;;;;;;;;;;20.80;99.90;;;;;;2087257;28;705;-55
2021/07/18 07:35:23;;;;;;;;;;;20.80;99.90;;;;;;2090955;28;1985;-52
2021/07/18 07:36:42;;;;;;;;;;;20.90;99.90;;;;;;2090886;28;779;-54
2021/07/18 07:38:05;;;;;;;;;;;20.80;99.90;;;;;;2098716;28;1673;-54
2021/07/18 07:39:25;;;;;;;;;;;20.80;99.90;;;;;;2105943;28;1051;-55
2021/07/18 07:40:45;;;;;;;;;;;20.80;99.90;;;;;;2090452;28;728;-54
2021/07/18 07:42:04;;;;;;;;;;;20.80;99.90;;;;;;2087258;28;1381;-53
2021/07/18 07:43:24;;;;;;;;;;;20.90;99.90;;;;;;2090834;28;736;-52
2021/07/18 07:44:43;;;;;;;;;;;20.80;99.90;;;;;;2089910;28;718;-55
2021/07/18 07:46:02;;;;;;;;;;;20.80;99.90;;;;;;2090883;28;724;-52
2021/07/18 07:47:22;;;;;;;;;;;20.80;99.90;;;;;;2090719;28;782;-55
2021/07/18 07:48:41;;;;;;;;;;;20.90;99.90;;;;;;2098775;28;718;-53
2021/07/18 07:50:00;;;;;;;;;;;20.80;99.90;;;;;;2098535;28;718;-56
2021/07/18 07:51:19;;;;;;;;;;;20.90;99.90;;;;;;2097267;28;751;-53
2021/07/18 07:52:39;;;;;;;;;;;20.80;99.90;;;;;;2090312;28;734;-55